Craven, South Dakota
Current Conditions -  °F | °C
As of 3:53 AM on Sunday 26 Oct 2014 (Local Time) from KABR Reporting Station
Clear Clear  
Wind Chill: 33°   Ceiling: Unl
Heat Index: 38°   Visibility: 10mi
Dew Point: 31°   Wind: 7mph
Humidity: 76%   Direction: 120°ESE
Pressure: 29.9"   Gusts: NA
Location:  45.4188°N, 99.0275°W
Report Text: KABR 260853Z AUTO 12006KT 10SM CLR 03/M01 A2990 RMK AO2 SLP129 T00331006 56022
Loading
Personal Weather Stations






























Interactive Weather Map
Tropical Storm Tracking
New forecast layout! Learn more

10-Day Weather Forecast

Advertisements
Track Severe Weather on mobile